East Berkshire, New York
Current Conditions -  °F | °C
As of 8:49 PM on Wednesday 26 Nov 2014 (Local Time) from KBGM Reporting Station
Haze Haze  
Wind Chill: 37°   Ceiling: 2400
Heat Index: 43°   Visibility: 1.7mi
Dew Point: 27°   Wind: 10mph
Humidity: 53%   Direction: 350°N
Pressure: 29.9"   Gusts: NA
Location:  42.3124°N, 76.194°W
Report Text: KBGM 270149Z 35009KT 1 3/4SM HZ SCT005 OVC024 06/M03 A2990 RMK AO2 SFC VIS 2 1/2 $
Loading
Personal Weather Stations






























Interactive Weather Map New forecast layout! Learn more

10-Day Weather Forecast

Advertisements
Track Severe Weather on mobile